createdAt,value
2023-03-02T00:02:01.371Z,97.10
2023-03-02T00:04:45.475Z,97.10
2023-03-02T00:07:20.025Z,97.20
2023-03-02T00:09:48.259Z,97.40
2023-03-02T00:12:16.090Z,97.50
2023-03-02T00:14:43.146Z,97.50
2023-03-02T00:17:10.741Z,97.50
2023-03-02T00:19:37.990Z,97.60
2023-03-02T00:22:05.271Z,97.70
2023-03-02T00:24:32.554Z,97.80
2023-03-02T00:26:59.528Z,97.90
2023-03-02T00:29:26.581Z,98.00
2023-03-02T00:31:54.408Z,98.10
2023-03-02T00:34:21.465Z,98.20
2023-03-02T00:36:49.696Z,98.30
2023-03-02T00:39:20.364Z,98.30
2023-03-02T00:41:48.621Z,98.20
2023-03-02T00:44:17.854Z,98.30
2023-03-02T00:46:45.222Z,98.30
2023-03-02T00:49:13.143Z,98.40
2023-03-02T00:51:40.138Z,98.50
2023-03-02T00:54:07.195Z,98.80
2023-03-02T00:56:34.694Z,98.80
2023-03-02T00:59:06.467Z,98.50
2023-03-02T01:01:33.495Z,98.60
2023-03-02T01:04:00.450Z,98.60
2023-03-02T01:06:27.412Z,98.70
2023-03-02T01:08:54.461Z,99.00
2023-03-02T01:11:23.235Z,98.70
2023-03-02T01:13:50.521Z,98.70
2023-03-02T01:16:17.695Z,98.80
2023-03-02T01:18:44.748Z,98.80
2023-03-02T01:21:15.202Z,98.80
2023-03-02T01:23:42.573Z,98.80
2023-03-02T01:26:10.191Z,98.80
2023-03-02T01:28:37.347Z,98.80
2023-03-02T01:31:04.865Z,98.80
2023-03-02T01:33:32.598Z,98.90
2023-03-02T01:35:59.803Z,99.10
2023-03-02T01:38:27.148Z,99.10
2023-03-02T01:40:54.263Z,99.20
2023-03-02T01:43:21.292Z,99.20
2023-03-02T01:45:53.551Z,99.20
2023-03-02T01:48:32.723Z,99.20
2023-03-02T01:51:02.485Z,99.10
2023-03-02T01:53:32.840Z,99.20
2023-03-02T01:56:01.898Z,99.20
2023-03-02T01:58:34.573Z,99.30
2023-03-02T02:01:01.610Z,99.30
2023-03-02T02:03:31.541Z,99.30
2023-03-02T02:06:33.333Z,99.20
2023-03-02T02:09:02.153Z,99.20
2023-03-02T02:11:29.155Z,99.20
2023-03-02T02:14:01.023Z,99.20
2023-03-02T02:16:31.660Z,99.20
2023-03-02T02:18:58.976Z,99.20
2023-03-02T02:21:28.032Z,99.30
2023-03-02T02:24:19.786Z,99.40
2023-03-02T02:26:55.081Z,99.40
2023-03-02T02:29:34.272Z,99.50
2023-03-02T02:32:06.977Z,99.60
2023-03-02T02:34:42.564Z,99.60
2023-03-02T02:37:23.840Z,99.60
2023-03-02T02:39:51.905Z,99.70
2023-03-02T02:42:32.074Z,99.80
2023-03-02T02:45:06.650Z,99.90
2023-03-02T02:47:34.397Z,99.90
2023-03-02T02:50:01.735Z,99.90
2023-03-02T02:52:29.244Z,99.90
2023-03-02T02:54:57.861Z,99.90
2023-03-02T02:57:28.665Z,99.90
2023-03-02T03:00:00.537Z,99.90
2023-03-02T03:02:30.963Z,99.90
2023-03-02T03:05:02.776Z,99.90
2023-03-02T03:07:31.874Z,99.90
2023-03-02T03:10:25.260Z,99.90
2023-03-02T03:12:52.491Z,99.90
2023-03-02T03:15:19.487Z,99.90
2023-03-02T03:17:57.328Z,99.90
2023-03-02T03:20:26.259Z,99.90
2023-03-02T03:22:53.614Z,99.90
2023-03-02T03:25:22.170Z,99.90
2023-03-02T03:27:50.127Z,99.90
2023-03-02T03:30:17.602Z,99.90
2023-03-02T03:32:45.035Z,99.90
2023-03-02T03:35:12.629Z,99.90
2023-03-02T03:37:41.208Z,99.90
2023-03-02T03:40:10.253Z,99.90
2023-03-02T03:42:39.839Z,99.90
2023-03-02T03:45:09.000Z,99.90
2023-03-02T03:47:36.974Z,99.90
2023-03-02T03:50:04.122Z,99.90
2023-03-02T03:52:31.206Z,99.90
2023-03-02T03:55:00.479Z,99.90
2023-03-02T03:57:28.750Z,99.90
2023-03-02T03:59:55.836Z,99.90
2023-03-02T04:02:23.036Z,99.90
2023-03-02T04:04:50.070Z,99.90
2023-03-02T04:07:17.326Z,99.90
2023-03-02T04:09:44.695Z,99.90
2023-03-02T04:12:11.744Z,99.90
2023-03-02T04:14:38.823Z,99.90
2023-03-02T04:17:07.200Z,99.90
2023-03-02T04:19:35.677Z,99.90
2023-03-02T04:22:04.266Z,99.90
2023-03-02T04:24:31.892Z,99.90
2023-03-02T04:26:59.055Z,99.90
2023-03-02T04:29:26.439Z,99.90
2023-03-02T04:31:53.472Z,99.90
2023-03-02T04:34:20.705Z,99.90
2023-03-02T04:36:47.673Z,99.90
2023-03-02T04:39:16.780Z,99.90
2023-03-02T04:41:44.741Z,99.90
2023-03-02T04:44:12.530Z,99.90
2023-03-02T04:46:41.808Z,99.90
2023-03-02T04:49:11.688Z,99.90
2023-03-02T04:51:41.600Z,99.90
2023-03-02T04:54:14.103Z,99.90
2023-03-02T04:56:41.111Z,99.90
2023-03-02T04:59:10.014Z,99.90
2023-03-02T05:01:36.997Z,99.90
2023-03-02T05:04:04.559Z,99.90
2023-03-02T05:06:31.889Z,99.90
2023-03-02T05:09:00.253Z,99.90
2023-03-02T05:11:28.430Z,99.90
2023-03-02T05:14:01.384Z,99.90
2023-03-02T05:16:32.040Z,99.90
2023-03-02T05:19:00.843Z,99.90
2023-03-02T05:21:28.399Z,99.90
2023-03-02T05:23:55.484Z,99.90
2023-03-02T05:26:22.936Z,99.90
2023-03-02T05:28:51.527Z,99.90
2023-03-02T05:31:30.930Z,99.90
2023-03-02T05:33:58.252Z,99.90
2023-03-02T05:36:25.197Z,99.90
2023-03-02T05:38:52.146Z,99.90
2023-03-02T05:41:19.264Z,99.90
2023-03-02T05:43:46.292Z,99.90
2023-03-02T05:46:13.233Z,99.90
2023-03-02T05:48:56.751Z,99.90
2023-03-02T05:51:23.717Z,99.90
2023-03-02T05:53:50.687Z,99.90
2023-03-02T05:56:17.906Z,99.90
2023-03-02T05:58:44.931Z,99.90
2023-03-02T06:01:15.151Z,99.90
2023-03-02T06:03:43.504Z,99.90
2023-03-02T06:06:14.249Z,99.90
2023-03-02T06:08:42.960Z,99.90
2023-03-02T06:11:11.190Z,99.90
2023-03-02T06:13:38.556Z,99.90
2023-03-02T06:16:06.162Z,99.90
2023-03-02T06:18:33.669Z,99.90
2023-03-02T06:21:00.591Z,99.90
2023-03-02T06:23:27.829Z,99.90
2023-03-02T06:25:55.064Z,99.90
2023-03-02T06:28:22.138Z,99.90
2023-03-02T06:30:49.968Z,99.90
2023-03-02T06:33:21.638Z,99.90
2023-03-02T06:35:49.668Z,99.90
2023-03-02T06:38:17.814Z,99.90
2023-03-02T06:40:45.149Z,99.90
2023-03-02T06:43:12.301Z,99.90
2023-03-02T06:45:39.422Z,99.90
2023-03-02T06:48:07.837Z,99.90
2023-03-02T06:50:34.983Z,99.90
2023-03-02T06:53:02.174Z,99.90
2023-03-02T06:55:30.176Z,99.90
2023-03-02T06:57:57.093Z,99.90
2023-03-02T07:00:28.411Z,99.90
2023-03-02T07:02:56.452Z,99.90
2023-03-02T07:05:24.508Z,99.90
2023-03-02T07:07:51.578Z,99.90
2023-03-02T07:10:18.876Z,99.90
2023-03-02T07:12:45.877Z,99.90
2023-03-02T07:15:14.477Z,99.90
2023-03-02T07:17:43.198Z,99.90
2023-03-02T07:20:12.183Z,99.90
2023-03-02T07:22:39.709Z,99.90
2023-03-02T07:25:07.727Z,99.90
2023-03-02T07:27:34.814Z,99.90
2023-03-02T07:30:01.796Z,99.90
2023-03-02T07:32:28.898Z,98.00
2023-03-02T07:34:55.877Z,96.50
2023-03-02T07:37:22.964Z,95.80
2023-03-02T07:39:50.332Z,94.70
2023-03-02T07:42:17.975Z,93.00
2023-03-02T07:44:44.920Z,92.20
2023-03-02T07:47:12.032Z,91.50
2023-03-02T07:49:39.239Z,90.30
2023-03-02T07:52:06.793Z,89.50
2023-03-02T07:54:33.839Z,89.90
2023-03-02T07:57:00.927Z,86.80
2023-03-02T07:59:28.520Z,84.60
2023-03-02T08:01:58.141Z,83.60
2023-03-02T08:04:25.693Z,82.90
2023-03-02T08:06:52.728Z,80.60
2023-03-02T08:09:19.824Z,78.60
2023-03-02T08:11:47.965Z,77.20
2023-03-02T08:14:15.956Z,76.70
2023-03-02T08:16:43.059Z,74.50
2023-03-02T08:19:10.640Z,73.40
2023-03-02T08:21:37.632Z,71.80
2023-03-02T08:24:05.286Z,71.30
2023-03-02T08:26:32.526Z,70.40
2023-03-02T08:28:59.888Z,68.90
2023-03-02T08:31:27.492Z,66.30
2023-03-02T08:33:54.588Z,67.00
2023-03-02T08:36:22.040Z,67.00
2023-03-02T08:38:49.769Z,66.00
2023-03-02T08:41:20.124Z,64.20
2023-03-02T08:43:47.966Z,63.10
2023-03-02T08:46:18.046Z,60.50
2023-03-02T08:48:45.795Z,61.40
2023-03-02T08:51:24.566Z,61.10
2023-03-02T08:53:55.379Z,61.30
2023-03-02T08:56:23.650Z,61.90
2023-03-02T08:58:52.224Z,61.50
2023-03-02T09:01:22.979Z,60.30
2023-03-02T09:03:50.489Z,60.30
2023-03-02T09:06:18.244Z,58.50
2023-03-02T09:08:45.535Z,58.40
2023-03-02T09:11:12.576Z,58.50
2023-03-02T09:13:39.647Z,57.90
2023-03-02T09:16:08.651Z,56.70
2023-03-02T09:18:36.649Z,56.50
2023-03-02T09:21:05.263Z,56.00
2023-03-02T09:23:33.170Z,55.40
2023-03-02T09:26:00.158Z,55.50
2023-03-02T09:28:27.174Z,54.90
2023-03-02T09:31:02.927Z,54.80
2023-03-02T09:33:30.793Z,54.00
2023-03-02T09:35:57.984Z,54.20
2023-03-02T09:38:25.210Z,54.30
2023-03-02T09:41:20.356Z,53.30
2023-03-02T09:44:33.433Z,53.20
2023-03-02T09:47:04.920Z,52.30
2023-03-02T09:49:37.562Z,52.20
2023-03-02T09:52:29.735Z,51.70
2023-03-02T09:55:11.419Z,50.90
2023-03-02T09:57:39.988Z,50.40
2023-03-02T10:00:31.177Z,50.90
2023-03-02T10:03:14.960Z,49.70
2023-03-02T10:05:45.166Z,50.70
2023-03-02T10:08:18.427Z,50.10
2023-03-02T10:11:07.618Z,49.70
2023-03-02T10:13:44.626Z,49.70
2023-03-02T10:16:28.991Z,48.90
2023-03-02T10:19:05.396Z,48.40
2023-03-02T10:21:38.556Z,48.90
2023-03-02T10:24:14.294Z,49.10
2023-03-02T10:26:44.271Z,48.90
2023-03-02T10:29:29.769Z,48.60
2023-03-02T10:32:06.517Z,48.30
2023-03-02T10:34:36.102Z,48.80
2023-03-02T10:37:03.073Z,49.40
2023-03-02T10:39:30.041Z,49.50
2023-03-02T10:42:02.584Z,49.00
2023-03-02T10:44:35.248Z,48.70
2023-03-02T10:47:02.179Z,48.10
2023-03-02T10:49:29.130Z,48.70
2023-03-02T10:52:02.400Z,48.80
2023-03-02T10:54:31.175Z,49.20
2023-03-02T10:57:04.201Z,49.90
2023-03-02T10:59:39.793Z,49.50
2023-03-02T11:02:27.919Z,49.60
2023-03-02T11:04:58.177Z,50.00
2023-03-02T11:07:28.613Z,50.80
2023-03-02T11:10:32.534Z,50.80
2023-03-02T11:13:01.302Z,51.20
2023-03-02T11:15:34.226Z,51.30
2023-03-02T11:18:12.511Z,51.50
2023-03-02T11:20:43.238Z,51.40
2023-03-02T11:23:35.143Z,51.30
2023-03-02T11:26:17.262Z,51.40
2023-03-02T11:29:31.613Z,52.00
2023-03-02T11:32:18.521Z,51.80
2023-03-02T11:34:57.285Z,51.60
2023-03-02T11:37:39.991Z,51.90
2023-03-02T11:40:19.107Z,51.80
2023-03-02T11:42:47.139Z,52.80
2023-03-02T11:45:14.029Z,54.00
2023-03-02T11:48:08.139Z,55.50
2023-03-02T11:50:45.972Z,56.40
2023-03-02T11:53:19.412Z,57.30
2023-03-02T11:55:48.794Z,58.60
2023-03-02T11:58:28.428Z,59.60
2023-03-02T12:00:57.019Z,60.50
2023-03-02T12:03:33.041Z,61.20
2023-03-02T12:06:26.387Z,61.90
2023-03-02T12:09:07.104Z,62.90
2023-03-02T12:11:38.880Z,63.70
2023-03-02T12:14:29.835Z,64.00
2023-03-02T12:17:20.201Z,64.70
2023-03-02T12:19:48.153Z,65.00
2023-03-02T12:22:26.909Z,65.60
2023-03-02T12:25:19.288Z,65.80
2023-03-02T12:27:49.653Z,65.70
2023-03-02T12:30:16.955Z,65.30
2023-03-02T12:32:48.461Z,65.60
2023-03-02T12:35:20.850Z,66.20
2023-03-02T12:37:47.875Z,66.20
2023-03-02T12:40:55.919Z,66.50
2023-03-02T12:43:26.042Z,66.60
2023-03-02T12:45:58.868Z,65.80
2023-03-02T12:48:36.142Z,67.40
2023-03-02T12:51:05.970Z,69.10
2023-03-02T12:53:32.997Z,69.50
2023-03-02T12:56:00.067Z,69.60
2023-03-02T12:58:29.070Z,70.00
2023-03-02T13:00:58.516Z,70.30
2023-03-02T13:03:27.181Z,70.10
2023-03-02T13:06:16.986Z,70.10
2023-03-02T13:08:48.309Z,70.40
2023-03-02T13:11:27.401Z,70.30
2023-03-02T13:13:54.504Z,70.80
2023-03-02T13:16:31.844Z,71.70
2023-03-02T13:19:03.922Z,73.20
2023-03-02T13:21:38.942Z,75.00
2023-03-02T13:24:33.910Z,75.40
2023-03-02T13:27:16.197Z,75.40
2023-03-02T13:29:43.204Z,76.10
2023-03-02T13:32:23.764Z,77.50
2023-03-02T13:35:02.617Z,76.60
2023-03-02T13:37:34.847Z,76.70
2023-03-02T13:40:04.332Z,77.30
2023-03-02T13:42:39.843Z,78.30
2023-03-02T13:45:31.115Z,77.60
2023-03-02T13:48:15.505Z,77.70
2023-03-02T13:51:01.566Z,78.20
2023-03-02T13:53:31.270Z,78.80
2023-03-02T13:56:00.357Z,78.60
2023-03-02T13:58:30.130Z,78.50
2023-03-02T14:00:57.623Z,79.30
2023-03-02T14:03:28.041Z,80.80
2023-03-02T14:05:56.378Z,83.60
2023-03-02T14:08:24.038Z,83.20
2023-03-02T14:10:53.950Z,84.40
2023-03-02T14:13:39.962Z,85.60
2023-03-02T14:16:07.441Z,84.70
2023-03-02T14:19:02.088Z,83.10
2023-03-02T14:21:29.204Z,82.30
2023-03-02T14:23:56.335Z,86.00
2023-03-02T14:26:34.974Z,88.20
2023-03-02T14:29:28.172Z,89.60
2023-03-02T14:31:56.991Z,90.20
2023-03-02T14:34:24.253Z,90.70
2023-03-02T14:36:53.625Z,91.00
2023-03-02T14:39:34.527Z,91.20
2023-03-02T14:42:01.681Z,91.30
2023-03-02T14:44:28.704Z,91.70
2023-03-02T14:46:57.210Z,91.70
2023-03-02T14:49:25.297Z,92.10
2023-03-02T14:51:58.333Z,92.20
2023-03-02T14:54:26.284Z,92.60
2023-03-02T14:56:53.432Z,92.90
2023-03-02T14:59:20.517Z,93.30
2023-03-02T15:01:47.519Z,93.50
2023-03-02T15:04:14.538Z,94.00
2023-03-02T15:06:43.569Z,94.40
2023-03-02T15:09:11.550Z,94.90
2023-03-02T15:11:38.630Z,95.40
2023-03-02T15:14:05.604Z,95.60
2023-03-02T15:16:32.578Z,95.90
2023-03-02T15:18:59.601Z,96.20
2023-03-02T15:21:26.560Z,96.80
2023-03-02T15:23:53.537Z,97.30
2023-03-02T15:26:20.582Z,97.90
2023-03-02T15:28:51.866Z,98.30
2023-03-02T15:31:19.548Z,98.60
2023-03-02T15:33:46.690Z,98.80
2023-03-02T15:36:14.494Z,99.10
2023-03-02T15:38:41.776Z,99.50
2023-03-02T15:41:13.596Z,99.80
2023-03-02T15:43:40.630Z,99.90
2023-03-02T15:46:09.789Z,99.90
2023-03-02T15:48:37.669Z,99.90
2023-03-02T15:51:08.675Z,99.90
2023-03-02T15:53:38.352Z,99.90
2023-03-02T15:56:13.928Z,99.90
2023-03-02T15:58:41.179Z,99.90
2023-03-02T16:01:09.927Z,99.90
2023-03-02T16:03:38.245Z,99.90
2023-03-02T16:06:05.838Z,99.90
2023-03-02T16:08:32.864Z,99.90
2023-03-02T16:11:06.921Z,99.90
2023-03-02T16:13:34.496Z,99.90
2023-03-02T16:16:03.308Z,99.90
2023-03-02T16:18:30.685Z,99.90
2023-03-02T16:20:57.645Z,99.90
2023-03-02T16:23:24.644Z,99.90
2023-03-02T16:25:52.449Z,99.90
2023-03-02T16:28:20.060Z,99.90
2023-03-02T16:30:47.683Z,99.90
2023-03-02T16:33:17.393Z,99.90
2023-03-02T16:35:44.868Z,99.90
2023-03-02T16:38:12.043Z,99.90
2023-03-02T16:40:40.558Z,99.90
2023-03-02T16:43:10.548Z,99.90
2023-03-02T16:45:37.827Z,99.90
2023-03-02T16:48:05.740Z,99.90
2023-03-02T16:50:33.264Z,99.90
2023-03-02T16:53:00.383Z,99.90
2023-03-02T16:55:27.724Z,99.90
2023-03-02T16:57:54.721Z,99.90
2023-03-02T17:00:22.950Z,99.90
2023-03-02T17:02:51.070Z,99.90
2023-03-02T17:05:19.834Z,99.90
2023-03-02T17:07:47.327Z,99.90
2023-03-02T17:10:19.859Z,99.90
2023-03-02T17:12:47.242Z,99.90
2023-03-02T17:15:14.438Z,99.90
2023-03-02T17:17:41.645Z,99.90
2023-03-02T17:20:11.390Z,99.90
2023-03-02T17:22:38.707Z,99.90
2023-03-02T17:25:06.457Z,99.90
2023-03-02T17:27:33.398Z,99.90
2023-03-02T17:30:00.512Z,99.90
2023-03-02T17:32:27.638Z,99.90
2023-03-02T17:34:54.769Z,99.90
2023-03-02T17:37:22.022Z,99.90
2023-03-02T17:39:52.834Z,99.90
2023-03-02T17:42:19.918Z,99.90
2023-03-02T17:44:46.839Z,99.90
2023-03-02T17:47:15.506Z,99.90
2023-03-02T17:49:45.772Z,99.90
2023-03-02T17:52:14.262Z,99.90
2023-03-02T17:54:42.071Z,99.90
2023-03-02T17:57:09.320Z,99.90
2023-03-02T17:59:36.458Z,99.90
2023-03-02T18:02:03.855Z,99.90
2023-03-02T18:04:30.890Z,99.90
2023-03-02T18:06:57.995Z,99.90
2023-03-02T18:09:24.966Z,99.90
2023-03-02T18:11:51.961Z,99.90
2023-03-02T18:14:20.640Z,99.90
2023-03-02T18:16:48.266Z,99.90
2023-03-02T18:19:15.420Z,99.90
2023-03-02T18:21:42.663Z,99.90
2023-03-02T18:24:10.181Z,99.90
2023-03-02T18:26:37.743Z,99.90
2023-03-02T18:29:05.496Z,99.90
2023-03-02T18:31:34.198Z,99.90
2023-03-02T18:34:02.282Z,99.90
2023-03-02T18:36:30.177Z,99.90
2023-03-02T18:38:57.556Z,99.90
2023-03-02T18:41:25.048Z,99.90
2023-03-02T18:43:52.514Z,99.90
2023-03-02T18:46:22.532Z,99.90
2023-03-02T18:48:50.705Z,99.90
2023-03-02T18:51:19.216Z,99.90
2023-03-02T18:53:47.103Z,99.90
2023-03-02T18:56:14.706Z,99.90
2023-03-02T18:58:42.068Z,99.90
2023-03-02T19:01:09.783Z,99.90
2023-03-02T19:03:38.690Z,99.90
2023-03-02T19:06:07.442Z,99.90
2023-03-02T19:08:37.602Z,99.90
2023-03-02T19:11:06.198Z,99.90
2023-03-02T19:13:33.608Z,99.90
2023-03-02T19:16:02.120Z,99.90
2023-03-02T19:18:30.102Z,99.90
2023-03-02T19:20:57.833Z,99.90
2023-03-02T19:23:25.372Z,99.90
2023-03-02T19:25:53.295Z,99.90
2023-03-02T19:28:21.770Z,99.90
2023-03-02T19:30:49.571Z,99.90
2023-03-02T19:33:16.568Z,99.90
2023-03-02T19:35:43.978Z,99.90
2023-03-02T19:38:11.675Z,99.90
2023-03-02T19:40:38.994Z,99.90
2023-03-02T19:43:06.285Z,99.90
2023-03-02T19:45:35.156Z,99.90
2023-03-02T19:48:03.953Z,99.90
2023-03-02T19:50:32.965Z,99.90
2023-03-02T19:53:03.239Z,99.90
2023-03-02T19:55:30.169Z,99.90
2023-03-02T19:58:00.157Z,99.90
2023-03-02T20:00:29.813Z,99.90
2023-03-02T20:02:59.983Z,99.90
2023-03-02T20:05:27.867Z,99.90
2023-03-02T20:07:55.386Z,99.90
2023-03-02T20:10:33.394Z,99.90
2023-03-02T20:13:00.916Z,99.90
2023-03-02T20:15:32.437Z,99.90
2023-03-02T20:18:02.648Z,99.90
2023-03-02T20:20:31.343Z,99.90
2023-03-02T20:23:00.226Z,99.90
2023-03-02T20:25:28.501Z,99.90
2023-03-02T20:27:56.966Z,99.90
2023-03-02T20:30:31.717Z,99.90
2023-03-02T20:32:59.636Z,99.90
2023-03-02T20:35:30.623Z,99.90
2023-03-02T20:38:01.668Z,99.90
2023-03-02T20:40:29.550Z,99.90
2023-03-02T20:42:56.822Z,99.90
2023-03-02T20:45:24.378Z,99.90
2023-03-02T20:47:51.439Z,99.90
2023-03-02T20:50:22.044Z,99.90
2023-03-02T20:52:49.225Z,99.90
2023-03-02T20:55:16.619Z,99.90
2023-03-02T20:57:43.709Z,99.90
2023-03-02T21:00:16.861Z,99.90
2023-03-02T21:02:47.550Z,99.90
2023-03-02T21:05:15.736Z,99.90
2023-03-02T21:07:43.367Z,99.90
2023-03-02T21:10:16.100Z,99.90
2023-03-02T21:12:43.576Z,99.90
2023-03-02T21:15:11.105Z,99.90
2023-03-02T21:17:41.171Z,99.90
2023-03-02T21:20:09.280Z,99.90
2023-03-02T21:22:36.640Z,99.90
2023-03-02T21:25:04.013Z,99.90
2023-03-02T21:27:31.167Z,99.90
2023-03-02T21:29:58.196Z,99.90
2023-03-02T21:32:25.213Z,99.90
2023-03-02T21:34:54.264Z,99.90
2023-03-02T21:37:22.627Z,99.90
2023-03-02T21:39:53.426Z,99.90
2023-03-02T21:42:21.366Z,99.90
2023-03-02T21:44:49.657Z,99.90
2023-03-02T21:47:16.619Z,99.90
2023-03-02T21:49:45.698Z,99.90
2023-03-02T21:52:13.677Z,99.90
2023-03-02T21:54:40.784Z,99.90
2023-03-02T21:57:09.736Z,99.90
2023-03-02T21:59:39.847Z,99.90
2023-03-02T22:02:07.603Z,99.90
2023-03-02T22:04:38.064Z,99.90
2023-03-02T22:07:11.243Z,99.90
2023-03-02T22:09:38.376Z,99.90
2023-03-02T22:12:13.719Z,99.90
2023-03-02T22:14:40.876Z,99.90
2023-03-02T22:17:24.709Z,99.90
2023-03-02T22:19:53.162Z,99.90
2023-03-02T22:22:38.520Z,99.90
2023-03-02T22:25:15.902Z,99.90
2023-03-02T22:27:46.500Z,99.90
2023-03-02T22:30:24.217Z,99.90
2023-03-02T22:32:53.204Z,99.90
2023-03-02T22:35:27.127Z,99.90
2023-03-02T22:38:30.412Z,99.90
2023-03-02T22:40:58.355Z,99.90
2023-03-02T22:43:31.889Z,99.90
2023-03-02T22:46:17.589Z,99.90
2023-03-02T22:48:52.899Z,99.90
2023-03-02T22:51:24.033Z,99.90
2023-03-02T22:53:55.369Z,99.90
2023-03-02T22:56:43.647Z,99.90
2023-03-02T22:59:35.728Z,99.90
2023-03-02T23:02:26.242Z,99.90
2023-03-02T23:04:53.303Z,99.90
2023-03-02T23:07:22.311Z,99.90
2023-03-02T23:09:50.420Z,99.90
2023-03-02T23:12:21.415Z,99.90
2023-03-02T23:14:56.984Z,99.90
2023-03-02T23:17:39.130Z,99.90
2023-03-02T23:20:11.510Z,99.90
2023-03-02T23:22:42.648Z,99.90
2023-03-02T23:25:09.845Z,99.90
2023-03-02T23:27:39.967Z,99.90
2023-03-02T23:30:10.545Z,99.90
2023-03-02T23:32:39.526Z,99.90
2023-03-02T23:35:07.706Z,99.90
2023-03-02T23:37:35.736Z,99.90
2023-03-02T23:40:04.315Z,99.90
2023-03-02T23:42:31.698Z,99.90
2023-03-02T23:45:01.813Z,99.90
2023-03-02T23:47:28.735Z,99.90
2023-03-02T23:49:56.749Z,99.90
2023-03-02T23:52:26.921Z,99.90
2023-03-02T23:54:57.012Z,99.90
2023-03-02T23:57:24.275Z,99.90
2023-03-02T23:59:52.298Z,99.90
